Trident Challenger — V7TY7 — position and weather

sailwx.info

Track history (hours):
 
Tides and Currents Weather Stations Pressure Air Temp Water Temp Dewpoint Dewpoint Depression Visibility Wind Speed Wind Dir Waves Ship Positions

Trident Challenger

Last reported at 2016-Mar-23 14:12 UTC. Time now 2016-May-03 16:19 UTC.
Position N 04°39' E 099°01'.
Warning: this ship's position is 41 days out of date.

Length 189 m; draft 12.5 m.

Type: Cargo ship. MMSI: 538003908.

Date/timePositionNaut miles runAvg speedWind from/ knotsBaromVisibWave heightAir tempDewpointWater temp
2016-Mar-23 14:12N 04°39' E 099°01'25211.0
2016-Mar-22 15:18N 01°57' E 102°14'810.4
2016-Mar-22 14:33N 01°54' E 102°21'11 9.8
2016-Mar-22 13:28N 01°50' E 102°31'12 9.2
2016-Mar-22 12:08N 01°45' E 102°42'73 9.6
2016-Mar-22 04:33N 01°10' E 103°46'10 9.7
2016-Mar-22 03:32N 01°14' E 103°55'8 8.0
2016-Mar-22 02:32N 01°17' E 104°02'1 0.6
2016-Mar-22 00:14N 01°17' E 104°01'0 0.0
2016-Mar-21 23:23N 01°17' E 104°01'0 0.0
2016-Mar-21 22:29N 01°17' E 104°01'0 0.0
2016-Mar-21 21:26N 01°17' E 104°01'0 0.1
2016-Mar-21 20:31N 01°17' E 104°01'0 0.0
2016-Mar-21 19:19N 01°17' E 104°01'0 0.1
2016-Mar-21 18:29N 01°17' E 104°01'0 0.1
2016-Mar-21 17:32N 01°17' E 104°01'0 0.0
2016-Mar-21 16:32N 01°17' E 104°01'0 0.0
2016-Mar-21 15:26N 01°17' E 104°01'0 0.0
2016-Mar-21 14:32N 01°17' E 104°01'0 0.0
2016-Mar-21 13:23N 01°17' E 104°01'0 0.0
2016-Mar-21 11:32N 01°17' E 104°01'0 0.0
2016-Mar-21 10:32N 01°17' E 104°01'0 0.2
2016-Mar-21 09:20N 01°17' E 104°01'0 0.0
2016-Mar-21 07:26N 01°17' E 104°01'0 0.0
2016-Mar-21 05:20N 01°17' E 104°01'0 0.0
2016-Mar-21 04:20N 01°17' E 104°01'0 0.2
2016-Mar-21 03:23N 01°17' E 104°01'0 0.1
2016-Mar-21 02:20N 01°17' E 104°01'0 0.0
2016-Mar-21 01:32N 01°17' E 104°01'0 0.0
2016-Mar-20 22:31N 01°17' E 104°01'0 0.0
2016-Mar-20 21:26N 01°17' E 104°01'0 0.0
2016-Mar-20 20:32N 01°17' E 104°01'0 0.0
2016-Mar-20 18:31N 01°17' E 104°01'0 0.0
2016-Mar-20 17:31N 01°17' E 104°01'0 0.0
2016-Mar-20 14:20N 01°17' E 104°01'0 0.0
2016-Mar-20 13:26N 01°17' E 104°01'0 0.0
2016-Mar-20 11:20N 01°17' E 104°01'0 0.0
2016-Mar-20 10:14N 01°17' E 104°01'0 0.2
2016-Mar-20 09:32N 01°17' E 104°01'0 0.1
2016-Mar-20 08:14N 01°17' E 104°01'0 0.0
2016-Mar-20 06:14N 01°17' E 104°01'0 0.0
2016-Mar-20 04:20N 01°17' E 104°01'0 0.0
2016-Mar-20 03:32N 01°17' E 104°01'0 0.1
2016-Mar-20 01:31N 01°17' E 104°01'0 0.0
2016-Mar-19 19:25N 01°17' E 104°01'0 0.0
2016-Mar-19 18:20N 01°17' E 104°01'0 0.1
2016-Mar-19 17:14N 01°17' E 104°01'0 0.0
2016-Mar-19 15:25N 01°17' E 104°01'0 0.0
2016-Mar-19 14:05N 01°17' E 104°01'0 0.0
2016-Mar-19 13:28N 01°17' E 104°01'0 0.0
2016-Mar-19 12:08N 01°17' E 104°01'0 0.1
2016-Mar-19 08:32N 01°17' E 104°01'0 0.1
2016-Mar-19 07:20N 01°17' E 104°01'0 0.0
2016-Mar-19 06:17N 01°17' E 104°01'0 0.0
2016-Mar-19 04:32N 01°17' E 104°01'0 0.0
2016-Mar-19 03:25N 01°17' E 104°01'0 0.0
2016-Mar-19 02:32N 01°17' E 104°01'0 0.1
2016-Mar-18 23:32N 01°17' E 104°01'0 0.0
2016-Mar-18 22:32N 01°17' E 104°01'0 0.0
2016-Mar-18 21:08N 01°17' E 104°01'0 0.0
2016-Mar-18 20:32N 01°17' E 104°01'0 0.0
2016-Mar-18 19:32N 01°17' E 104°01'0 0.0
2016-Mar-18 18:32N 01°17' E 104°01'0 0.0
2016-Mar-18 17:32N 01°17' E 104°01'0 0.0
2016-Mar-18 16:32N 01°17' E 104°01'0 0.0
2016-Mar-18 14:08N 01°17' E 104°01'0 0.0
2016-Mar-18 12:32N 01°17' E 104°01'0 0.0
2016-Mar-18 10:07N 01°17' E 104°01'0 0.1
2016-Mar-18 09:26N 01°17' E 104°01'0 0.0
2016-Mar-18 08:26N 01°17' E 104°01'0 0.1
2016-Mar-18 06:26N 01°17' E 104°01'0 0.0
2016-Mar-18 03:32N 01°17' E 104°01'0 0.0
2016-Mar-18 02:32N 01°17' E 104°01'0 0.1
2016-Mar-17 23:08N 01°17' E 104°01'0 0.0
2016-Mar-17 21:20N 01°17' E 104°01'0 0.1
2016-Mar-17 20:32N 01°17' E 104°01'0 0.1
2016-Mar-17 19:29N 01°17' E 104°01'0 0.0
2016-Mar-17 18:32N 01°17' E 104°01'0 0.0
2016-Mar-17 17:08N 01°17' E 104°01'0 0.0
2016-Mar-17 14:08N 01°17' E 104°01'0 0.0
2016-Mar-17 13:23N 01°17' E 104°01'0 0.0
2016-Mar-17 12:29N 01°17' E 104°01'0 0.0
2016-Mar-17 10:14N 01°17' E 104°01'0 0.0
2016-Mar-17 08:20N 01°17' E 104°01'0 0.1
2016-Mar-17 07:17N 01°17' E 104°01'0 0.1
2016-Mar-17 05:20N 01°17' E 104°01'0 0.0
2016-Mar-17 04:08N 01°17' E 104°01'0 0.0
2016-Mar-17 03:32N 01°17' E 104°01'0 0.0
2016-Mar-17 01:26N 01°17' E 104°01'0 0.0
2016-Mar-16 23:11N 01°17' E 104°01'0 0.1
2016-Mar-16 20:32N 01°17' E 104°01'0 0.0
2016-Mar-16 19:26N 01°17' E 104°01'0 0.0
2016-Mar-16 18:22N 01°17' E 104°01'0 0.0
2016-Mar-16 17:32N 01°17' E 104°01'0 0.0
2016-Mar-16 15:32N 01°17' E 104°01'0 0.1
2016-Mar-16 14:31N 01°17' E 104°01'0 0.0
2016-Mar-16 13:32N 01°17' E 104°01'0 0.0
2016-Mar-16 10:20N 01°17' E 104°01'0 0.0
2016-Mar-16 08:14N 01°17' E 104°01'0 0.0
2016-Mar-16 05:20N 01°17' E 104°01'0 0.2
2016-Mar-16 04:32N 01°17' E 104°01'0 0.0
2016-Mar-16 01:14N 01°17' E 104°01'0 0.1
2016-Mar-15 22:08N 01°17' E 104°01'0 0.1
2016-Mar-15 21:32N 01°17' E 104°01'0 0.0
2016-Mar-15 20:32N 01°17' E 104°01'0 0.0
2016-Mar-15 18:31N 01°17' E 104°01'0 0.1
2016-Mar-15 17:29N 01°17' E 104°01'1 0.3
2016-Mar-15 15:33N 01°17' E 104°00'2 2.4
2016-Mar-15 14:33N 01°16' E 103°58'3 3.3
2016-Mar-15 13:31N 01°16' E 104°02'3 3.3
2016-Mar-15 12:32N 01°16' E 104°05'  
Track history (hours):
 
Tides and Currents Weather Stations Pressure Air Temp Water Temp Dewpoint Dewpoint Depression Visibility Wind Speed Wind Dir Waves Ship Positions

Trident Challenger

Last reported at 2016-Mar-23 14:12 UTC. Time now 2016-May-03 16:19 UTC.
Position N 04°39' E 099°01'.
Warning: this ship's position is 41 days out of date.

Length 189 m; draft 12.5 m.

Type: Cargo ship. MMSI: 538003908.

Date/timePositionNaut miles runAvg speedWind from/ knotsBaromVisibWave heightAir tempDewpointWater temp
2016-Mar-23 14:12N 04°39' E 099°01'25211.0
2016-Mar-22 15:18N 01°57' E 102°14'810.4
2016-Mar-22 14:33N 01°54' E 102°21'11 9.8
2016-Mar-22 13:28N 01°50' E 102°31'12 9.2
2016-Mar-22 12:08N 01°45' E 102°42'73 9.6
2016-Mar-22 04:33N 01°10' E 103°46'10 9.7
2016-Mar-22 03:32N 01°14' E 103°55'8 8.0
2016-Mar-22 02:32N 01°17' E 104°02'1 0.6
2016-Mar-22 00:14N 01°17' E 104°01'0 0.0
2016-Mar-21 23:23N 01°17' E 104°01'0 0.0
2016-Mar-21 22:29N 01°17' E 104°01'0 0.0
2016-Mar-21 21:26N 01°17' E 104°01'0 0.1
2016-Mar-21 20:31N 01°17' E 104°01'0 0.0
2016-Mar-21 19:19N 01°17' E 104°01'0 0.1
2016-Mar-21 18:29N 01°17' E 104°01'0 0.1
2016-Mar-21 17:32N 01°17' E 104°01'0 0.0
2016-Mar-21 16:32N 01°17' E 104°01'0 0.0
2016-Mar-21 15:26N 01°17' E 104°01'0 0.0
2016-Mar-21 14:32N 01°17' E 104°01'0 0.0
2016-Mar-21 13:23N 01°17' E 104°01'0 0.0
2016-Mar-21 11:32N 01°17' E 104°01'0 0.0
2016-Mar-21 10:32N 01°17' E 104°01'0 0.2
2016-Mar-21 09:20N 01°17' E 104°01'0 0.0
2016-Mar-21 07:26N 01°17' E 104°01'0 0.0
2016-Mar-21 05:20N 01°17' E 104°01'0 0.0
2016-Mar-21 04:20N 01°17' E 104°01'0 0.2
2016-Mar-21 03:23N 01°17' E 104°01'0 0.1
2016-Mar-21 02:20N 01°17' E 104°01'0 0.0
2016-Mar-21 01:32N 01°17' E 104°01'0 0.0
2016-Mar-20 22:31N 01°17' E 104°01'0 0.0
2016-Mar-20 21:26N 01°17' E 104°01'0 0.0
2016-Mar-20 20:32N 01°17' E 104°01'0 0.0
2016-Mar-20 18:31N 01°17' E 104°01'0 0.0
2016-Mar-20 17:31N 01°17' E 104°01'0 0.0
2016-Mar-20 14:20N 01°17' E 104°01'0 0.0
2016-Mar-20 13:26N 01°17' E 104°01'0 0.0
2016-Mar-20 11:20N 01°17' E 104°01'0 0.0
2016-Mar-20 10:14N 01°17' E 104°01'0 0.2
2016-Mar-20 09:32N 01°17' E 104°01'0 0.1
2016-Mar-20 08:14N 01°17' E 104°01'0 0.0
2016-Mar-20 06:14N 01°17' E 104°01'0 0.0
2016-Mar-20 04:20N 01°17' E 104°01'0 0.0
2016-Mar-20 03:32N 01°17' E 104°01'0 0.1
2016-Mar-20 01:31N 01°17' E 104°01'0 0.0
2016-Mar-19 19:25N 01°17' E 104°01'0 0.0
2016-Mar-19 18:20N 01°17' E 104°01'0 0.1
2016-Mar-19 17:14N 01°17' E 104°01'0 0.0
2016-Mar-19 15:25N 01°17' E 104°01'0 0.0
2016-Mar-19 14:05N 01°17' E 104°01'0 0.0
2016-Mar-19 13:28N 01°17' E 104°01'0 0.0
2016-Mar-19 12:08N 01°17' E 104°01'0 0.1
2016-Mar-19 08:32N 01°17' E 104°01'0 0.1
2016-Mar-19 07:20N 01°17' E 104°01'0 0.0
2016-Mar-19 06:17N 01°17' E 104°01'0 0.0
2016-Mar-19 04:32N 01°17' E 104°01'0 0.0
2016-Mar-19 03:25N 01°17' E 104°01'0 0.0
2016-Mar-19 02:32N 01°17' E 104°01'0 0.1
2016-Mar-18 23:32N 01°17' E 104°01'0 0.0
2016-Mar-18 22:32N 01°17' E 104°01'0 0.0
2016-Mar-18 21:08N 01°17' E 104°01'0 0.0
2016-Mar-18 20:32N 01°17' E 104°01'0 0.0
2016-Mar-18 19:32N 01°17' E 104°01'0 0.0
2016-Mar-18 18:32N 01°17' E 104°01'0 0.0
2016-Mar-18 17:32N 01°17' E 104°01'0 0.0
2016-Mar-18 16:32N 01°17' E 104°01'0 0.0
2016-Mar-18 14:08N 01°17' E 104°01'0 0.0
2016-Mar-18 12:32N 01°17' E 104°01'0 0.0
2016-Mar-18 10:07N 01°17' E 104°01'0 0.1
2016-Mar-18 09:26N 01°17' E 104°01'0 0.0
2016-Mar-18 08:26N 01°17' E 104°01'0 0.1
2016-Mar-18 06:26N 01°17' E 104°01'0 0.0
2016-Mar-18 03:32N 01°17' E 104°01'0 0.0
2016-Mar-18 02:32N 01°17' E 104°01'0 0.1
2016-Mar-17 23:08N 01°17' E 104°01'0 0.0
2016-Mar-17 21:20N 01°17' E 104°01'0 0.1
2016-Mar-17 20:32N 01°17' E 104°01'0 0.1
2016-Mar-17 19:29N 01°17' E 104°01'0 0.0
2016-Mar-17 18:32N 01°17' E 104°01'0 0.0
2016-Mar-17 17:08N 01°17' E 104°01'0 0.0
2016-Mar-17 14:08N 01°17' E 104°01'0 0.0
2016-Mar-17 13:23N 01°17' E 104°01'0 0.0
2016-Mar-17 12:29N 01°17' E 104°01'0 0.0
2016-Mar-17 10:14N 01°17' E 104°01'0 0.0
2016-Mar-17 08:20N 01°17' E 104°01'0 0.1
2016-Mar-17 07:17N 01°17' E 104°01'0 0.1
2016-Mar-17 05:20N 01°17' E 104°01'0 0.0
2016-Mar-17 04:08N 01°17' E 104°01'0 0.0
2016-Mar-17 03:32N 01°17' E 104°01'0 0.0
2016-Mar-17 01:26N 01°17' E 104°01'0 0.0
2016-Mar-16 23:11N 01°17' E 104°01'0 0.1
2016-Mar-16 20:32N 01°17' E 104°01'0 0.0
2016-Mar-16 19:26N 01°17' E 104°01'0 0.0
2016-Mar-16 18:22N 01°17' E 104°01'0 0.0
2016-Mar-16 17:32N 01°17' E 104°01'0 0.0
2016-Mar-16 15:32N 01°17' E 104°01'0 0.1
2016-Mar-16 14:31N 01°17' E 104°01'0 0.0
2016-Mar-16 13:32N 01°17' E 104°01'0 0.0
2016-Mar-16 10:20N 01°17' E 104°01'0 0.0
2016-Mar-16 08:14N 01°17' E 104°01'0 0.0
2016-Mar-16 05:20N 01°17' E 104°01'0 0.2
2016-Mar-16 04:32N 01°17' E 104°01'0 0.0
2016-Mar-16 01:14N 01°17' E 104°01'0 0.1
2016-Mar-15 22:08N 01°17' E 104°01'0 0.1
2016-Mar-15 21:32N 01°17' E 104°01'0 0.0
2016-Mar-15 20:32N 01°17' E 104°01'0 0.0
2016-Mar-15 18:31N 01°17' E 104°01'0 0.1
2016-Mar-15 17:29N 01°17' E 104°01'1 0.3
2016-Mar-15 15:33N 01°17' E 104°00'2 2.4
2016-Mar-15 14:33N 01°16' E 103°58'3 3.3
2016-Mar-15 13:31N 01°16' E 104°02'3 3.3
2016-Mar-15 12:32N 01°16' E 104°05'  

Dump ship's entire track history